Time;durP1;ratioP1;P1;durP2;ratioP2;P2;SDS_P1;SDS_P2;PMS_P1;PMS_P2;Temp;Humidity;BMP_temperature;BMP_pressure;BME280_temperature;BME280_humidity;BME280_pressure;Samples;Min_cycle;Max_cycle;Signal;HPM_P1;HPM_P2
2022/01/15 00:00:05;;;;;;;;;;;13.40;99.90;;;;;;5056858;28;858;-45
2022/01/15 00:02:32;;;;;;;;;;;13.40;99.90;;;;;;5056640;28;980;-55
2022/01/15 00:04:59;;;;;;;;;;;13.40;99.90;;;;;;5056558;28;793;-55
2022/01/15 00:07:25;;;;;;;;;;;13.40;99.90;;;;;;5056316;28;825;-45
2022/01/15 00:09:52;;;;;;;;;;;13.30;99.90;;;;;;5056225;28;1902;-55
2022/01/15 00:12:18;;;;;;;;;;;13.40;99.90;;;;;;5042097;28;1420;-46
2022/01/15 00:14:46;;;;;;;;;;;13.30;99.90;;;;;;5038124;28;1089;-45
2022/01/15 00:17:43;;;;;;;;;;;13.30;99.90;;;;;;5055954;28;1123;-55
2022/01/15 00:20:07;;;;;;;;;;;13.30;99.90;;;;;;5055808;28;1465;-45
2022/01/15 00:22:35;;;;;;;;;;;13.30;99.90;;;;;;5055950;28;1006;-45
2022/01/15 00:25:03;;;;;;;;;;;13.30;99.90;;;;;;5056354;28;1026;-45
2022/01/15 00:27:30;;;;;;;;;;;13.30;99.90;;;;;;5038309;28;857;-55
2022/01/15 00:29:56;;;;;;;;;;;13.30;99.90;;;;;;5056496;28;793;-46
2022/01/15 00:32:24;;;;;;;;;;;13.20;99.90;;;;;;5056437;28;892;-55
2022/01/15 00:34:53;;;;;;;;;;;13.30;99.90;;;;;;5055887;28;888;-55
2022/01/15 00:37:20;;;;;;;;;;;13.30;99.90;;;;;;5037491;28;1190;-55
2022/01/15 00:39:47;;;;;;;;;;;13.30;99.90;;;;;;5054565;28;837;-46
2022/01/15 00:42:14;;;;;;;;;;;13.20;99.90;;;;;;5054252;28;1039;-55
2022/01/15 00:44:41;;;;;;;;;;;13.20;99.90;;;;;;5054313;28;794;-55
2022/01/15 00:47:07;;;;;;;;;;;13.20;99.90;;;;;;5053698;28;1084;-55
2022/01/15 00:49:33;;;;;;;;;;;13.20;99.90;;;;;;5053995;28;1898;-55
2022/01/15 00:51:59;;;;;;;;;;;13.20;99.90;;;;;;5054172;28;825;-55
2022/01/15 00:54:26;;;;;;;;;;;13.20;99.90;;;;;;5053888;28;862;-45
2022/01/15 00:56:53;;;;;;;;;;;13.20;99.90;;;;;;5054165;28;849;-55
2022/01/15 00:59:20;;;;;;;;;;;13.20;99.90;;;;;;5037492;28;987;-55
2022/01/15 01:01:46;;;;;;;;;;;13.20;99.90;;;;;;5037319;28;950;-45
2022/01/15 01:04:14;;;;;;;;;;;13.20;99.90;;;;;;5037157;28;1355;-45
2022/01/15 01:06:40;;;;;;;;;;;13.10;99.90;;;;;;5004508;28;1512;-45
2022/01/15 01:09:07;;;;;;;;;;;13.10;99.90;;;;;;5034582;28;1966;-55
2022/01/15 01:11:46;;;;;;;;;;;13.10;99.90;;;;;;5055613;28;801;-55
2022/01/15 01:25:15;;;;;;;;;;;13.10;99.90;;;;;;5043563;28;955;-46
2022/01/15 01:27:47;;;;;;;;;;;13.10;99.90;;;;;;5024647;28;1886;-45
2022/01/15 01:30:23;;;;;;;;;;;13.00;99.90;;;;;;5059462;28;959;-45
2022/01/15 01:33:39;;;;;;;;;;;13.00;99.90;;;;;;5058067;28;958;-55
2022/01/15 01:35:41;;;;;;;;;;;13.10;99.90;;;;;;5058657;28;1245;-55
2022/01/15 01:38:27;;;;;;;;;;;13.00;99.90;;;;;;5059263;28;1024;-55
2022/01/15 01:40:57;;;;;;;;;;;13.00;99.90;;;;;;5024623;28;975;-55
2022/01/15 01:46:18;;;;;;;;;;;13.00;99.90;;;;;;5056761;28;772;-55
2022/01/15 01:48:46;;;;;;;;;;;13.00;99.90;;;;;;5057470;28;1973;-55
2022/01/15 01:51:22;;;;;;;;;;;13.00;99.90;;;;;;5059125;28;980;-55
2022/01/15 01:53:49;;;;;;;;;;;13.00;99.90;;;;;;5058918;28;731;-55
2022/01/15 01:56:15;;;;;;;;;;;13.00;99.90;;;;;;5057851;28;975;-46
2022/01/15 01:58:42;;;;;;;;;;;13.00;99.90;;;;;;5058849;28;1090;-55
2022/01/15 02:01:08;;;;;;;;;;;13.00;99.90;;;;;;5058952;28;932;-55
2022/01/15 02:03:35;;;;;;;;;;;12.90;99.90;;;;;;5056680;28;1408;-55
2022/01/15 02:06:01;;;;;;;;;;;13.00;99.90;;;;;;5057661;28;1183;-55
2022/01/15 02:08:29;;;;;;;;;;;13.00;99.90;;;;;;5058859;28;1930;-46
2022/01/15 02:10:57;;;;;;;;;;;12.90;99.90;;;;;;5024326;28;923;-46
2022/01/15 02:13:24;;;;;;;;;;;12.90;99.90;;;;;;5038400;28;1203;-46
2022/01/15 02:15:51;;;;;;;;;;;12.90;99.90;;;;;;5040614;28;938;-55
2022/01/15 02:18:18;;;;;;;;;;;12.90;99.90;;;;;;5057114;28;1103;-55
2022/01/15 02:23:36;;;;;;;;;;;12.90;99.90;;;;;;5036793;28;1021;-46
2022/01/15 02:26:04;;;;;;;;;;;12.90;99.90;;;;;;5020223;28;1413;-46
2022/01/15 02:28:33;;;;;;;;;;;12.90;99.90;;;;;;5036505;28;1973;-46
2022/01/15 02:31:07;;;;;;;;;;;12.90;99.90;;;;;;5003918;28;1017;-46
2022/01/15 02:33:34;;;;;;;;;;;12.80;99.90;;;;;;5036168;28;948;-45
2022/01/15 02:36:01;;;;;;;;;;;12.90;99.90;;;;;;5035611;28;1048;-46
2022/01/15 02:38:28;;;;;;;;;;;12.90;99.90;;;;;;5036552;28;892;-46
2022/01/15 02:40:53;;;;;;;;;;;12.80;99.90;;;;;;5036356;28;2146;-55
2022/01/15 02:43:27;;;;;;;;;;;12.80;99.90;;;;;;5036537;28;798;-55
2022/01/15 02:45:58;;;;;;;;;;;12.80;99.90;;;;;;5020902;28;773;-46
2022/01/15 02:48:26;;;;;;;;;;;12.80;99.90;;;;;;5036288;28;1914;-46
2022/01/15 02:50:54;;;;;;;;;;;12.80;99.90;;;;;;5018533;28;1407;-46
2022/01/15 02:53:21;;;;;;;;;;;12.80;99.90;;;;;;5036193;28;1032;-46
2022/01/15 02:55:48;;;;;;;;;;;12.80;99.90;;;;;;5036443;28;835;-46
2022/01/15 02:58:18;;;;;;;;;;;12.80;99.90;;;;;;5003609;28;1001;-45
2022/01/15 03:00:44;;;;;;;;;;;12.70;99.90;;;;;;5016405;28;1031;-55
2022/01/15 03:03:10;;;;;;;;;;;12.70;99.90;;;;;;5000138;28;853;-55
2022/01/15 03:05:38;;;;;;;;;;;12.70;99.90;;;;;;5016225;28;990;-55
2022/01/15 03:08:25;;;;;;;;;;;12.70;99.90;;;;;;5016081;28;1911;-46
2022/01/15 03:10:51;;;;;;;;;;;12.70;99.90;;;;;;4999624;28;1054;-45
2022/01/15 03:13:18;;;;;;;;;;;12.70;99.90;;;;;;5016170;28;826;-45
2022/01/15 03:15:45;;;;;;;;;;;12.70;99.90;;;;;;5015946;28;846;-45
2022/01/15 03:18:11;;;;;;;;;;;12.70;99.90;;;;;;5015852;28;1189;-45
2022/01/15 03:20:38;;;;;;;;;;;12.70;99.90;;;;;;5015898;28;1297;-45
2022/01/15 03:23:04;;;;;;;;;;;12.70;99.90;;;;;;5016012;28;1085;-45
2022/01/15 03:25:30;;;;;;;;;;;12.60;99.90;;;;;;5014321;28;1203;-46
2022/01/15 03:27:56;;;;;;;;;;;12.60;99.90;;;;;;4999163;28;1542;-55
2022/01/15 03:30:22;;;;;;;;;;;12.60;99.90;;;;;;5015979;28;787;-55
2022/01/15 03:32:48;;;;;;;;;;;12.60;99.90;;;;;;5016001;28;841;-55
2022/01/15 03:35:16;;;;;;;;;;;12.60;99.90;;;;;;4998745;28;838;-55
2022/01/15 03:37:43;;;;;;;;;;;12.60;99.90;;;;;;5015262;28;1139;-55
2022/01/15 03:40:12;;;;;;;;;;;12.60;99.90;;;;;;5015185;28;1344;-55
2022/01/15 03:42:40;;;;;;;;;;;12.60;99.90;;;;;;5015785;28;936;-45
2022/01/15 03:45:07;;;;;;;;;;;12.60;99.90;;;;;;5015539;28;871;-45
2022/01/15 03:47:35;;;;;;;;;;;12.60;99.90;;;;;;5014438;28;830;-45
2022/01/15 03:50:01;;;;;;;;;;;12.60;99.90;;;;;;5017940;28;1899;-45
2022/01/15 03:52:27;;;;;;;;;;;12.60;99.90;;;;;;5056866;28;908;-45
2022/01/15 03:54:53;;;;;;;;;;;12.50;99.90;;;;;;5056815;28;1043;-55
2022/01/15 03:57:22;;;;;;;;;;;12.50;99.90;;;;;;5056674;28;948;-55
2022/01/15 03:59:50;;;;;;;;;;;12.50;99.90;;;;;;5055231;28;949;-55
2022/01/15 04:02:16;;;;;;;;;;;12.50;99.90;;;;;;5056747;28;858;-55
2022/01/15 04:04:43;;;;;;;;;;;12.50;99.90;;;;;;5056472;28;772;-55
2022/01/15 04:07:10;;;;;;;;;;;12.50;99.90;;;;;;5056487;28;801;-55
2022/01/15 04:09:36;;;;;;;;;;;12.50;99.90;;;;;;5056355;28;1890;-45
2022/01/15 04:12:05;;;;;;;;;;;12.50;99.90;;;;;;5054987;28;1128;-45
2022/01/15 04:14:31;;;;;;;;;;;12.50;99.90;;;;;;5053045;28;1075;-46
2022/01/15 04:17:04;;;;;;;;;;;12.50;99.90;;;;;;5058505;28;1250;-55
2022/01/15 04:19:33;;;;;;;;;;;12.50;99.90;;;;;;5035391;28;1062;-55
2022/01/15 04:22:00;;;;;;;;;;;12.50;99.90;;;;;;5038165;28;925;-46
2022/01/15 04:24:29;;;;;;;;;;;12.50;99.90;;;;;;5038254;28;1013;-45
2022/01/15 04:26:55;;;;;;;;;;;12.50;99.90;;;;;;5037492;28;979;-55
2022/01/15 04:29:23;;;;;;;;;;;12.50;99.90;;;;;;5056086;28;1981;-55
2022/01/15 04:31:50;;;;;;;;;;;12.40;99.90;;;;;;5055971;28;883;-45
2022/01/15 04:34:42;;;;;;;;;;;12.40;99.90;;;;;;5056333;28;738;-45
2022/01/15 04:37:21;;;;;;;;;;;12.40;99.90;;;;;;5055111;28;1031;-55
2022/01/15 04:39:49;;;;;;;;;;;12.40;99.90;;;;;;5056058;28;849;-55
2022/01/15 04:42:20;;;;;;;;;;;12.40;99.90;;;;;;5021222;28;1442;-55
2022/01/15 04:44:47;;;;;;;;;;;12.40;99.90;;;;;;5056040;28;810;-55
2022/01/15 04:47:15;;;;;;;;;;;12.40;99.90;;;;;;5056192;28;769;-55
2022/01/15 04:49:41;;;;;;;;;;;12.40;99.90;;;;;;5055643;28;1975;-55
2022/01/15 04:52:09;;;;;;;;;;;12.40;99.90;;;;;;5020882;28;1037;-45
2022/01/15 04:54:36;;;;;;;;;;;12.40;99.90;;;;;;5055978;28;954;-45
2022/01/15 04:57:03;;;;;;;;;;;12.40;99.90;;;;;;5055945;28;928;-55
2022/01/15 04:59:30;;;;;;;;;;;12.40;99.90;;;;;;4988429;28;1162;-55
2022/01/15 05:01:56;;;;;;;;;;;12.40;99.90;;;;;;5004818;28;1068;-55
2022/01/15 05:04:22;;;;;;;;;;;12.40;99.90;;;;;;5054130;28;1020;-55
2022/01/15 05:06:49;;;;;;;;;;;12.40;99.90;;;;;;5055296;28;967;-55
2022/01/15 05:09:15;;;;;;;;;;;12.40;99.90;;;;;;5055438;28;1914;-55
2022/01/15 05:11:49;;;;;;;;;;;12.30;99.90;;;;;;5055281;28;907;-55
2022/01/15 05:14:16;;;;;;;;;;;12.30;99.90;;;;;;5054408;28;936;-55
2022/01/15 05:16:45;;;;;;;;;;;12.30;99.90;;;;;;5055882;28;758;-55
2022/01/15 05:19:12;;;;;;;;;;;12.30;99.90;;;;;;5055373;28;1332;-55
2022/01/15 05:21:39;;;;;;;;;;;12.30;99.90;;;;;;5055555;28;770;-45
2022/01/15 05:24:06;;;;;;;;;;;12.30;99.90;;;;;;5055497;28;852;-45
2022/01/15 05:26:32;;;;;;;;;;;12.30;99.90;;;;;;5055355;28;1507;-45
2022/01/15 05:28:58;;;;;;;;;;;12.30;99.90;;;;;;5055624;28;1913;-55
2022/01/15 05:31:25;;;;;;;;;;;12.30;99.90;;;;;;5055706;28;880;-45
2022/01/15 05:33:53;;;;;;;;;;;12.30;99.90;;;;;;5055341;28;930;-55
2022/01/15 05:36:19;;;;;;;;;;;12.30;99.90;;;;;;5055089;28;1289;-45
2022/01/15 05:38:46;;;;;;;;;;;12.30;99.90;;;;;;5055500;28;762;-55
2022/01/15 05:41:13;;;;;;;;;;;12.30;99.90;;;;;;5055292;28;889;-56
2022/01/15 05:43:40;;;;;;;;;;;12.20;99.90;;;;;;5054891;28;1297;-55
2022/01/15 05:46:06;;;;;;;;;;;12.20;99.90;;;;;;5055194;28;887;-45
2022/01/15 05:48:34;;;;;;;;;;;12.20;99.90;;;;;;5055359;28;1971;-45
2022/01/15 05:51:00;;;;;;;;;;;12.20;99.90;;;;;;5055425;28;762;-45
2022/01/15 05:53:26;;;;;;;;;;;12.20;99.90;;;;;;5037571;28;1256;-45
2022/01/15 05:55:53;;;;;;;;;;;12.20;99.90;;;;;;5053796;28;851;-45
2022/01/15 05:58:25;;;;;;;;;;;12.20;99.90;;;;;;5055246;28;761;-55
2022/01/15 06:00:51;;;;;;;;;;;12.20;99.90;;;;;;5037373;28;935;-45
2022/01/15 06:03:17;;;;;;;;;;;12.20;99.90;;;;;;5053624;28;939;-55
2022/01/15 06:05:45;;;;;;;;;;;12.20;99.90;;;;;;5053406;28;890;-45
2022/01/15 06:08:11;;;;;;;;;;;12.20;99.90;;;;;;5053743;28;1088;-45
2022/01/15 06:10:38;;;;;;;;;;;12.20;99.90;;;;;;5057420;28;1965;-45
2022/01/15 06:13:04;;;;;;;;;;;12.20;99.90;;;;;;5057029;28;826;-45
2022/01/15 06:15:30;;;;;;;;;;;12.10;99.90;;;;;;5040527;28;988;-45
2022/01/15 06:17:56;;;;;;;;;;;12.10;99.90;;;;;;5036839;28;1146;-55
2022/01/15 06:20:23;;;;;;;;;;;12.20;99.90;;;;;;5036371;28;1101;-55
2022/01/15 06:22:49;;;;;;;;;;;12.10;99.90;;;;;;5003513;28;930;-55
2022/01/15 06:25:15;;;;;;;;;;;12.10;99.90;;;;;;5036226;28;926;-55
2022/01/15 06:27:41;;;;;;;;;;;12.10;99.90;;;;;;5036893;28;1047;-55
2022/01/15 06:30:09;;;;;;;;;;;12.10;99.90;;;;;;5036622;28;1910;-55
2022/01/15 06:32:36;;;;;;;;;;;12.10;99.90;;;;;;5031240;28;1054;-55
2022/01/15 06:35:07;;;;;;;;;;;12.10;99.90;;;;;;5036695;28;976;-55
2022/01/15 06:37:34;;;;;;;;;;;12.10;99.90;;;;;;5031403;28;1170;-55
2022/01/15 06:40:02;;;;;;;;;;;12.10;99.90;;;;;;5037048;28;849;-55
2022/01/15 06:42:29;;;;;;;;;;;12.10;99.90;;;;;;5031427;28;830;-55
2022/01/15 06:44:55;;;;;;;;;;;12.10;99.90;;;;;;5031383;28;893;-55
2022/01/15 06:47:22;;;;;;;;;;;12.10;99.90;;;;;;5047631;28;980;-55
2022/01/15 06:49:50;;;;;;;;;;;12.10;99.90;;;;;;5004037;28;1961;-55
2022/01/15 06:52:16;;;;;;;;;;;12.10;99.90;;;;;;5057745;28;825;-55
2022/01/15 06:54:43;;;;;;;;;;;12.10;99.90;;;;;;5057882;28;770;-55
2022/01/15 06:57:09;;;;;;;;;;;12.10;99.90;;;;;;5057827;28;821;-55
2022/01/15 06:59:36;;;;;;;;;;;12.00;99.90;;;;;;5057763;28;831;-55
2022/01/15 07:02:05;;;;;;;;;;;12.00;99.90;;;;;;5056588;28;958;-55
2022/01/15 07:04:34;;;;;;;;;;;12.00;99.90;;;;;;5038939;28;967;-55
2022/01/15 07:07:00;;;;;;;;;;;12.00;99.90;;;;;;5056211;28;929;-55
2022/01/15 07:09:26;;;;;;;;;;;12.00;99.90;;;;;;5057356;28;1915;-55
2022/01/15 07:11:52;;;;;;;;;;;12.00;99.90;;;;;;5057604;28;837;-55
2022/01/15 07:14:21;;;;;;;;;;;12.10;99.90;;;;;;5057484;28;1049;-55
2022/01/15 07:16:48;;;;;;;;;;;12.00;99.90;;;;;;5057712;28;781;-55
2022/01/15 07:19:14;;;;;;;;;;;12.00;99.90;;;;;;5057176;28;1054;-55
2022/01/15 07:21:40;;;;;;;;;;;12.00;99.90;;;;;;5057174;28;845;-55
2022/01/15 07:24:07;;;;;;;;;;;12.00;99.90;;;;;;5057227;28;914;-55
2022/01/15 07:26:35;;;;;;;;;;;12.00;99.90;;;;;;5038749;28;1270;-55
2022/01/15 07:29:05;;;;;;;;;;;12.00;99.90;;;;;;5056098;28;1906;-55
2022/01/15 07:31:32;;;;;;;;;;;12.00;99.90;;;;;;5056875;28;1312;-55
2022/01/15 07:34:00;;;;;;;;;;;12.00;99.90;;;;;;5057087;28;1447;-55
2022/01/15 07:36:28;;;;;;;;;;;12.00;99.90;;;;;;5039088;28;845;-55
2022/01/15 07:38:56;;;;;;;;;;;12.00;99.90;;;;;;5055960;28;990;-55
2022/01/15 07:41:22;;;;;;;;;;;12.00;99.90;;;;;;5056828;28;1249;-55
2022/01/15 07:43:50;;;;;;;;;;;12.00;99.90;;;;;;5040691;28;1452;-55
2022/01/15 07:46:16;;;;;;;;;;;12.10;99.90;;;;;;5057114;28;800;-55
2022/01/15 07:48:42;;;;;;;;;;;12.10;99.90;;;;;;5056610;28;1902;-59
2022/01/15 07:51:10;;;;;;;;;;;12.10;99.90;;;;;;5038714;28;1075;-55
2022/01/15 07:53:57;;;;;;;;;;;12.10;99.90;;;;;;5056936;28;790;-55
2022/01/15 07:56:24;;;;;;;;;;;12.20;99.90;;;;;;5056767;28;869;-55
2022/01/15 07:58:51;;;;;;;;;;;12.30;99.90;;;;;;5055146;28;995;-55
2022/01/15 08:01:17;;;;;;;;;;;12.30;99.90;;;;;;5056459;28;1013;-55
2022/01/15 08:03:44;;;;;;;;;;;12.40;99.90;;;;;;5059073;28;965;-55
2022/01/15 08:06:11;;;;;;;;;;;12.40;99.90;;;;;;5040813;28;1446;-55
2022/01/15 08:08:38;;;;;;;;;;;12.50;99.90;;;;;;5056320;28;778;-55
2022/01/15 08:11:05;;;;;;;;;;;12.60;99.90;;;;;;5056347;28;2092;-55
2022/01/15 08:13:31;;;;;;;;;;;12.70;99.90;;;;;;5056418;28;900;-55
2022/01/15 08:15:57;;;;;;;;;;;12.70;99.90;;;;;;5056350;28;978;-55
2022/01/15 08:18:26;;;;;;;;;;;12.80;99.90;;;;;;5056501;28;769;-45
2022/01/15 08:20:52;;;;;;;;;;;12.90;99.90;;;;;;5055637;28;1592;-45
2022/01/15 08:23:18;;;;;;;;;;;13.00;99.90;;;;;;5038060;28;1121;-45
2022/01/15 08:25:45;;;;;;;;;;;13.00;99.90;;;;;;5056159;28;825;-45
2022/01/15 08:28:12;;;;;;;;;;;13.10;99.90;;;;;;5056174;28;749;-45
2022/01/15 08:30:39;;;;;;;;;;;13.20;99.90;;;;;;5055167;28;1905;-45
2022/01/15 08:33:06;;;;;;;;;;;13.30;99.90;;;;;;5055814;28;789;-45
2022/01/15 08:35:33;;;;;;;;;;;13.40;99.90;;;;;;5056122;28;878;-45
2022/01/15 08:38:02;;;;;;;;;;;13.40;99.90;;;;;;5055842;28;810;-45
2022/01/15 08:40:29;;;;;;;;;;;13.50;99.90;;;;;;5055845;28;998;-45
2022/01/15 08:42:56;;;;;;;;;;;13.60;99.90;;;;;;5021588;28;898;-45
2022/01/15 08:45:23;;;;;;;;;;;13.70;99.90;;;;;;5055962;28;860;-55
2022/01/15 08:47:50;;;;;;;;;;;13.70;99.90;;;;;;5056001;28;785;-55
2022/01/15 08:50:21;;;;;;;;;;;13.80;99.90;;;;;;5056047;28;1902;-55
2022/01/15 08:52:49;;;;;;;;;;;13.90;99.90;;;;;;5055362;28;892;-55
2022/01/15 08:55:16;;;;;;;;;;;13.90;99.90;;;;;;5056031;28;785;-55
2022/01/15 08:57:42;;;;;;;;;;;13.90;99.90;;;;;;5055817;28;738;-54
2022/01/15 09:00:11;;;;;;;;;;;14.00;99.90;;;;;;5055716;28;1020;-55
2022/01/15 09:02:40;;;;;;;;;;;14.00;99.90;;;;;;5055142;28;758;-55
2022/01/15 09:05:08;;;;;;;;;;;14.10;99.90;;;;;;5055637;28;777;-55
2022/01/15 09:07:37;;;;;;;;;;;14.10;99.90;;;;;;5021366;28;872;-55
2022/01/15 09:10:04;;;;;;;;;;;14.10;99.90;;;;;;5055512;28;1976;-55
2022/01/15 09:12:30;;;;;;;;;;;14.10;99.90;;;;;;5055638;28;1164;-55
2022/01/15 09:14:59;;;;;;;;;;;14.20;99.90;;;;;;5037075;28;1048;-54
2022/01/15 09:17:27;;;;;;;;;;;14.20;99.90;;;;;;5055778;28;914;-55
2022/01/15 09:19:54;;;;;;;;;;;14.20;99.90;;;;;;5037336;28;1781;-55
2022/01/15 09:22:21;;;;;;;;;;;14.20;99.90;;;;;;5055753;28;953;-54
2022/01/15 09:24:48;;;;;;;;;;;14.20;99.90;;;;;;5055363;28;762;-54
2022/01/15 09:30:12;;;;;;;;;;;14.20;99.90;;;;;;5045563;28;1894;-54
2022/01/15 09:32:43;;;;;;;;;;;14.10;99.90;;;;;;5055487;28;873;-55
2022/01/15 09:35:10;;;;;;;;;;;14.10;99.90;;;;;;5054785;28;1293;-55
2022/01/15 09:37:37;;;;;;;;;;;14.10;99.90;;;;;;5036960;28;949;-45
2022/01/15 09:40:06;;;;;;;;;;;14.10;99.90;;;;;;5055221;28;851;-55
2022/01/15 09:42:39;;;;;;;;;;;14.10;99.90;;;;;;5038454;28;926;-54
2022/01/15 09:45:06;;;;;;;;;;;14.10;99.90;;;;;;5052432;28;1392;-55
2022/01/15 09:47:33;;;;;;;;;;;14.10;99.90;;;;;;5059108;28;885;-54
2022/01/15 09:50:02;;;;;;;;;;;14.00;99.90;;;;;;5058895;28;1930;-55
2022/01/15 09:52:30;;;;;;;;;;;14.00;99.90;;;;;;5001056;28;980;-45
2022/01/15 09:54:56;;;;;;;;;;;14.00;99.90;;;;;;5017595;28;861;-45
2022/01/15 09:57:24;;;;;;;;;;;14.00;99.90;;;;;;5001454;28;863;-45
2022/01/15 09:59:49;;;;;;;;;;;14.00;99.90;;;;;;5017611;28;1124;-45
2022/01/15 10:02:16;;;;;;;;;;;14.00;99.90;;;;;;5017600;28;839;-45
2022/01/15 10:04:43;;;;;;;;;;;14.10;99.90;;;;;;5000919;28;1008;-45
2022/01/15 10:07:12;;;;;;;;;;;14.10;99.90;;;;;;5016832;28;894;-45
2022/01/15 10:09:39;;;;;;;;;;;14.10;99.90;;;;;;5016777;28;1902;-55
2022/01/15 10:12:06;;;;;;;;;;;14.10;99.90;;;;;;5000701;28;1072;-54
2022/01/15 10:14:34;;;;;;;;;;;14.10;99.90;;;;;;5004557;28;1069;-45
2022/01/15 10:17:01;;;;;;;;;;;14.10;99.90;;;;;;4968488;28;1074;-54
2022/01/15 10:19:35;;;;;;;;;;;14.20;99.90;;;;;;4981464;28;1201;-54
2022/01/15 10:22:06;;;;;;;;;;;14.20;99.90;;;;;;5000848;28;950;-54
2022/01/15 10:24:32;;;;;;;;;;;14.20;99.90;;;;;;5000462;28;1304;-55
2022/01/15 10:27:16;;;;;;;;;;;14.20;99.90;;;;;;5017099;28;845;-54
2022/01/15 10:29:47;;;;;;;;;;;14.20;99.90;;;;;;5016918;28;1910;-54
2022/01/15 10:32:13;;;;;;;;;;;14.30;99.90;;;;;;5017194;28;796;-54
2022/01/15 10:34:42;;;;;;;;;;;14.30;99.90;;;;;;5014142;28;952;-55
2022/01/15 10:37:12;;;;;;;;;;;14.30;99.90;;;;;;5048224;28;810;-55
2022/01/15 10:39:40;;;;;;;;;;;14.30;99.90;;;;;;5058311;28;1005;-54
2022/01/15 10:42:13;;;;;;;;;;;14.30;99.90;;;;;;5058513;28;832;-55
2022/01/15 10:44:39;;;;;;;;;;;14.30;99.90;;;;;;5057912;28;888;-54
2022/01/15 10:47:16;;;;;;;;;;;14.30;99.90;;;;;;5058174;28;792;-45
2022/01/15 10:49:44;;;;;;;;;;;14.30;99.90;;;;;;5022524;28;1906;-45
2022/01/15 10:52:29;;;;;;;;;;;14.30;99.90;;;;;;5022767;28;1250;-45
2022/01/15 10:55:15;;;;;;;;;;;14.30;99.90;;;;;;5057746;28;837;-45
2022/01/15 10:57:43;;;;;;;;;;;14.30;99.90;;;;;;5058156;28;786;-55
2022/01/15 11:00:20;;;;;;;;;;;14.20;99.90;;;;;;5039732;28;1134;-46
2022/01/15 11:02:51;;;;;;;;;;;14.20;99.90;;;;;;5056532;28;1216;-45
2022/01/15 11:05:36;;;;;;;;;;;14.20;99.90;;;;;;5056736;28;794;-45
2022/01/15 11:08:08;;;;;;;;;;;14.20;99.90;;;;;;5055639;28;992;-45
2022/01/15 11:10:43;;;;;;;;;;;14.20;99.90;;;;;;5056596;28;1902;-45
2022/01/15 11:13:14;;;;;;;;;;;14.20;99.90;;;;;;5057368;28;894;-45
2022/01/15 11:16:02;;;;;;;;;;;14.20;99.90;;;;;;5057288;28;786;-45
2022/01/15 11:18:33;;;;;;;;;;;14.20;99.90;;;;;;5039601;28;932;-45
2022/01/15 11:21:02;;;;;;;;;;;14.20;99.90;;;;;;5056865;28;1127;-45
2022/01/15 11:23:29;;;;;;;;;;;14.10;99.90;;;;;;5057197;28;1030;-55
2022/01/15 11:25:58;;;;;;;;;;;14.10;99.90;;;;;;5057234;28;864;-46
2022/01/15 11:28:26;;;;;;;;;;;14.10;99.90;;;;;;5057168;28;1531;-46
2022/01/15 11:30:56;;;;;;;;;;;14.10;99.90;;;;;;5057168;28;1977;-46
2022/01/15 11:33:25;;;;;;;;;;;14.10;99.90;;;;;;5057219;28;761;-45
2022/01/15 11:35:51;;;;;;;;;;;14.10;99.90;;;;;;5055595;28;1313;-54
2022/01/15 11:38:36;;;;;;;;;;;14.10;99.90;;;;;;5056468;28;999;-55
2022/01/15 11:41:03;;;;;;;;;;;14.10;99.90;;;;;;5057039;28;769;-55
2022/01/15 11:43:47;;;;;;;;;;;14.10;99.90;;;;;;5057042;28;853;-55
2022/01/15 11:46:24;;;;;;;;;;;14.10;99.90;;;;;;5057097;28;822;-55
2022/01/15 11:49:29;;;;;;;;;;;14.10;99.90;;;;;;5057029;28;1276;-55
2022/01/15 11:51:57;;;;;;;;;;;14.10;99.90;;;;;;5056571;28;856;-55
2022/01/15 11:54:24;;;;;;;;;;;14.10;99.90;;;;;;5038583;28;966;-54
2022/01/15 11:56:50;;;;;;;;;;;14.10;99.90;;;;;;5056722;28;1317;-54
2022/01/15 11:59:45;;;;;;;;;;;14.10;99.90;;;;;;5056866;28;783;-55
2022/01/15 12:02:25;;;;;;;;;;;14.10;99.90;;;;;;5028904;28;1058;-55
2022/01/15 12:04:53;;;;;;;;;;;14.10;99.90;;;;;;5020639;28;1038;-45
2022/01/15 12:07:22;;;;;;;;;;;14.10;99.90;;;;;;4988318;28;979;-45
2022/01/15 12:09:51;;;;;;;;;;;14.10;99.90;;;;;;5033740;28;1981;-45
2022/01/15 12:12:21;;;;;;;;;;;14.10;99.90;;;;;;4969587;28;1028;-45
2022/01/15 12:14:48;;;;;;;;;;;14.10;99.90;;;;;;5018590;28;865;-55
2022/01/15 12:17:35;;;;;;;;;;;14.10;99.90;;;;;;5018228;28;1002;-45
2022/01/15 12:20:12;;;;;;;;;;;14.10;99.90;;;;;;5034313;28;1042;-55
2022/01/15 12:22:46;;;;;;;;;;;14.10;99.90;;;;;;5017961;28;1009;-55
2022/01/15 12:25:30;;;;;;;;;;;14.10;99.90;;;;;;5034708;28;1145;-45
2022/01/15 12:28:03;;;;;;;;;;;14.20;99.90;;;;;;5034690;28;807;-45
2022/01/15 12:30:30;;;;;;;;;;;14.20;99.90;;;;;;5001864;28;1958;-45
2022/01/15 12:33:00;;;;;;;;;;;14.20;99.90;;;;;;5034534;28;968;-45
2022/01/15 12:35:30;;;;;;;;;;;14.20;99.90;;;;;;5034424;28;858;-54
2022/01/15 12:38:01;;;;;;;;;;;14.20;99.90;;;;;;5006294;28;1045;-46
2022/01/15 12:40:48;;;;;;;;;;;14.20;99.90;;;;;;5055624;28;837;-45
2022/01/15 12:43:17;;;;;;;;;;;14.20;99.90;;;;;;5055796;28;1185;-55
2022/01/15 12:45:47;;;;;;;;;;;14.20;99.90;;;;;;5049453;28;1033;-46
2022/01/15 12:48:15;;;;;;;;;;;14.10;99.90;;;;;;5056060;28;915;-45
2022/01/15 12:50:47;;;;;;;;;;;14.10;99.90;;;;;;5037620;28;2252;-55
2022/01/15 12:53:14;;;;;;;;;;;14.10;99.90;;;;;;5055519;28;964;-54
2022/01/15 12:55:41;;;;;;;;;;;14.10;99.90;;;;;;5054729;28;869;-55
2022/01/15 12:58:08;;;;;;;;;;;14.10;99.90;;;;;;5055770;28;773;-55
2022/01/15 13:00:36;;;;;;;;;;;14.10;99.90;;;;;;5055710;28;749;-55
2022/01/15 13:03:05;;;;;;;;;;;14.10;99.90;;;;;;5055933;28;963;-55
2022/01/15 13:05:33;;;;;;;;;;;14.00;99.90;;;;;;5054342;28;1006;-55
2022/01/15 13:08:23;;;;;;;;;;;14.00;99.90;;;;;;5055938;28;774;-55
2022/01/15 13:10:56;;;;;;;;;;;14.00;99.90;;;;;;5053163;28;1959;-55
2022/01/15 13:13:42;;;;;;;;;;;14.00;99.90;;;;;;5055432;28;954;-55
2022/01/15 13:16:12;;;;;;;;;;;14.00;99.90;;;;;;5067018;28;913;-55
2022/01/15 13:18:42;;;;;;;;;;;14.00;99.90;;;;;;5056039;28;794;-55
2022/01/15 13:21:13;;;;;;;;;;;14.00;99.90;;;;;;5059242;28;1883;-55
2022/01/15 13:23:41;;;;;;;;;;;14.00;99.90;;;;;;5059825;28;830;-55
2022/01/15 13:26:08;;;;;;;;;;;14.00;99.90;;;;;;5059542;28;814;-45
2022/01/15 13:28:41;;;;;;;;;;;13.90;99.90;;;;;;5059829;28;805;-54
2022/01/15 13:31:10;;;;;;;;;;;13.90;99.90;;;;;;5008443;28;1902;-55
2022/01/15 13:33:38;;;;;;;;;;;13.90;99.90;;;;;;5059145;28;889;-45
2022/01/15 13:36:06;;;;;;;;;;;13.90;99.90;;;;;;5058805;28;1253;-45
2022/01/15 13:38:34;;;;;;;;;;;13.90;99.90;;;;;;5058981;28;1134;-45
2022/01/15 13:41:14;;;;;;;;;;;13.90;99.90;;;;;;5058571;28;1373;-45
2022/01/15 13:43:45;;;;;;;;;;;13.90;99.90;;;;;;5057252;28;857;-45
2022/01/15 13:46:19;;;;;;;;;;;13.90;99.90;;;;;;5059064;28;1301;-55
2022/01/15 13:48:53;;;;;;;;;;;13.90;99.90;;;;;;5059315;28;993;-45
2022/01/15 13:54:08;;;;;;;;;;;13.90;99.90;;;;;;5043808;28;877;-45
2022/01/15 13:56:39;;;;;;;;;;;13.90;99.90;;;;;;5040891;28;965;-54
2022/01/15 13:59:09;;;;;;;;;;;13.90;99.90;;;;;;5058711;28;995;-55
2022/01/15 14:01:57;;;;;;;;;;;13.90;99.90;;;;;;5059229;28;713;-45
2022/01/15 14:04:42;;;;;;;;;;;13.90;99.90;;;;;;5059272;28;792;-54
2022/01/15 14:07:09;;;;;;;;;;;13.90;99.90;;;;;;5058894;28;742;-45
2022/01/15 14:09:36;;;;;;;;;;;13.90;99.90;;;;;;5024001;28;1977;-45
2022/01/15 14:12:13;;;;;;;;;;;13.90;99.90;;;;;;5062784;28;1029;-45
2022/01/15 14:15:02;;;;;;;;;;;13.90;99.90;;;;;;5058405;28;869;-45
2022/01/15 14:17:30;;;;;;;;;;;13.90;99.90;;;;;;5058261;28;984;-45
2022/01/15 14:23:03;;;;;;;;;;;13.90;99.90;;;;;;5036955;28;1010;-45
2022/01/15 14:25:31;;;;;;;;;;;13.90;99.90;;;;;;5036666;28;882;-45
2022/01/15 14:28:05;;;;;;;;;;;13.90;99.90;;;;;;5020279;28;931;-45
2022/01/15 14:30:33;;;;;;;;;;;13.90;99.90;;;;;;5036022;28;1905;-45
2022/01/15 14:32:59;;;;;;;;;;;13.90;99.90;;;;;;5036870;28;789;-45
2022/01/15 14:35:27;;;;;;;;;;;13.90;99.90;;;;;;5036156;28;862;-45
2022/01/15 14:37:55;;;;;;;;;;;13.80;99.90;;;;;;5020421;28;1771;-45
2022/01/15 14:40:24;;;;;;;;;;;13.80;99.90;;;;;;5036514;28;1077;-45
2022/01/15 14:42:50;;;;;;;;;;;13.80;99.90;;;;;;5036571;28;947;-45
2022/01/15 14:45:20;;;;;;;;;;;13.80;99.90;;;;;;5004046;28;1001;-45
2022/01/15 14:47:51;;;;;;;;;;;13.80;99.90;;;;;;5036188;28;1072;-45
2022/01/15 14:50:18;;;;;;;;;;;13.80;99.90;;;;;;5004504;28;1978;-45
2022/01/15 14:52:46;;;;;;;;;;;13.70;99.90;;;;;;5021044;28;1691;-45
2022/01/15 14:55:17;;;;;;;;;;;13.70;99.90;;;;;;5057397;28;1100;-45
2022/01/15 14:57:45;;;;;;;;;;;13.70;99.90;;;;;;5057609;28;903;-45
2022/01/15 15:00:11;;;;;;;;;;;13.70;99.90;;;;;;5056999;28;837;-45
2022/01/15 15:02:37;;;;;;;;;;;13.70;99.90;;;;;;5057705;28;866;-45
2022/01/15 15:05:05;;;;;;;;;;;13.70;99.90;;;;;;5057639;28;773;-45
2022/01/15 15:07:31;;;;;;;;;;;13.70;99.90;;;;;;5058004;28;1132;-45
2022/01/15 15:09:57;;;;;;;;;;;13.60;99.90;;;;;;5057490;28;1960;-45
2022/01/15 15:12:37;;;;;;;;;;;13.60;99.90;;;;;;5057723;28;833;-45
2022/01/15 15:15:06;;;;;;;;;;;13.70;99.90;;;;;;5057766;28;771;-46